^^
Grace C. Lehan Memorial Weather Station Historical Data
Daily Summary for May 24, 2021 Units:  Metric    English   Both
Daily Weekly Monthly Yearly
  High: Low: Average:
Temperature: -0.9 °C -7.9 °C -4.9 °C
Dew Point: -13.4 °C -16.4 °C -14.6 °C
Humidity: 60% 32% 48%
Wind Speed: 20.9km/h 0.6km/h 9.5km/h
Wind Gust: 43.5km/h - -
Wind- - NW
Pressure: 1019.2 hPa 1016.5 hPa -
Precipitation: 0 mm    
 
 
Tabular Data for May 24, 2021
Time Temperature Dew Point Pressure Wind Wind Speed Wind Gust Humidity Rainfall Rate (Hourly) solar
00:04 -6.6 °C -13.9 °C 1017.8 hPa WNW 9.8 km/h 35.4 km/h 56% 0 mm 0 W/m2
00:09 -6.6 °C -13.9 °C 1017.8 hPa NW 10.6 km/h 29 km/h 56% 0 mm 0 W/m2
00:14 -6.7 °C -14 °C 1017.5 hPa NW 14.5 km/h 35.4 km/h 56% 0 mm 0 W/m2
00:19 -6.7 °C -14 °C 1017.5 hPa NNW 9.2 km/h 35.4 km/h 56% 0 mm 0 W/m2
00:24 -6.7 °C -14 °C 1017.8 hPa NNW 7.4 km/h 35.4 km/h 56.2% 0 mm 0 W/m2
00:29 -6.7 °C -13.9 °C 1017.5 hPa NNW 7.2 km/h 35.4 km/h 56.6% 0 mm 0 W/m2
00:34 -6.8 °C -13.9 °C 1017.5 hPa NW 7.1 km/h 35.4 km/h 56.6% 0 mm 0 W/m2
00:39 -6.8 °C -13.9 °C 1017.5 hPa NW 12.6 km/h 35.4 km/h 56.9% 0 mm 0 W/m2
00:44 -6.8 °C -14.1 °C 1017.5 hPa NW 9.5 km/h 35.4 km/h 56% 0 mm 0 W/m2
00:49 -6.8 °C -14.1 °C 1017.5 hPa NW 9.8 km/h 35.4 km/h 56.2% 0 mm 0 W/m2
00:54 -6.8 °C -13.9 °C 1017.5 hPa WNW 12.4 km/h 35.4 km/h 56.7% 0 mm 0 W/m2
00:59 -6.8 °C -14.1 °C 1017.5 hPa NW 18.5 km/h 35.4 km/h 56% 0 mm 0 W/m2
01:04 -6.8 °C -14.1 °C 1017.5 hPa WNW 12.6 km/h 35.4 km/h 56% 0 mm 0 W/m2
01:09 -6.8 °C -14.1 °C 1017.5 hPa WNW 15.3 km/h 33.8 km/h 56% 0 mm 0 W/m2
01:14 -6.8 °C -14.1 °C 1017.5 hPa WNW 17.9 km/h 35.4 km/h 56% 0 mm 0 W/m2
01:19 -6.8 °C -14.1 °C 1017.8 hPa WNW 15.9 km/h 35.4 km/h 56.2% 0 mm 0 W/m2
01:24 -6.8 °C -13.9 °C 1018.2 hPa WNW 14.5 km/h 35.4 km/h 57% 0 mm 0 W/m2
01:29 -6.8 °C -13.9 °C 1018.2 hPa WNW 12.1 km/h 35.4 km/h 57% 0 mm 0 W/m2
01:34 -6.9 °C -14 °C 1017.8 hPa NW 10.6 km/h 35.4 km/h 57% 0 mm 0 W/m2
01:39 -6.9 °C -14 °C 1018.2 hPa NW 12.9 km/h 25.7 km/h 57% 0 mm 0 W/m2
01:44 -6.9 °C -14 °C 1018.2 hPa WNW 16.1 km/h 27.4 km/h 57% 0 mm 0 W/m2
01:49 -6.9 °C -14 °C 1018.2 hPa WNW 12.4 km/h 27.4 km/h 57% 0 mm 0 W/m2
01:54 -7 °C -14 °C 1018.2 hPa NW 7.7 km/h 27.4 km/h 57.4% 0 mm 0 W/m2
01:59 -7 °C -13.6 °C 1018.2 hPa NW 7.2 km/h 27.4 km/h 59.5% 0 mm 0 W/m2
02:04 -7.1 °C -13.9 °C 1018.2 hPa WNW 5.8 km/h 27.4 km/h 58% 0 mm 0 W/m2
02:09 -7.1 °C -13.8 °C 1018.2 hPa NW 6.8 km/h 20.9 km/h 58.7% 0 mm 0 W/m2
02:14 -7.2 °C -13.8 °C 1018.2 hPa NW 8 km/h 20.9 km/h 59% 0 mm 0 W/m2
02:19 -7.2 °C -13.8 °C 1018.2 hPa WNW 9.5 km/h 22.5 km/h 59% 0 mm 0 W/m2
02:24 -7.2 °C -13.8 °C 1018.2 hPa WNW 5.8 km/h 22.5 km/h 59% 0 mm 0 W/m2
02:29 -7.3 °C -13.8 °C 1018.2 hPa WNW 6.3 km/h 22.5 km/h 59.5% 0 mm 0 W/m2
02:34 -7.3 °C -13.7 °C 1018.2 hPa WNW 5.6 km/h 22.5 km/h 60% 0 mm 0 W/m2
02:39 -7.3 °C -13.8 °C 1018.2 hPa WNW 12.4 km/h 27.4 km/h 60% 0 mm 0 W/m2
02:44 -7.4 °C -13.8 °C 1018.2 hPa NW 5.5 km/h 27.4 km/h 60% 0 mm 0 W/m2
02:49 -7.4 °C -13.8 °C 1018.2 hPa WNW 5.6 km/h 27.4 km/h 60% 0 mm 0 W/m2
02:54 -7.4 °C -13.9 °C 1018.2 hPa WNW 7.6 km/h 27.4 km/h 60% 0 mm 0 W/m2
02:59 -7.5 °C -13.9 °C 1018.2 hPa WNW 6.4 km/h 27.4 km/h 60% 0 mm 0 W/m2
03:04 -7.6 °C -13.9 °C 1018.2 hPa WNW 10 km/h 27.4 km/h 60% 0 mm 0 W/m2
03:09 -7.6 °C -13.9 °C 1018.2 hPa WNW 11.9 km/h 22.5 km/h 60% 0 mm 0 W/m2
03:14 -7.6 °C -13.9 °C 1018.2 hPa NW 9.3 km/h 22.5 km/h 60% 0 mm 0 W/m2
03:19 -7.6 °C -14 °C 1017.8 hPa WNW 8.9 km/h 24.1 km/h 60% 0 mm 0 W/m2
03:24 -7.6 °C -14 °C 1017.8 hPa NW 8.9 km/h 24.1 km/h 60% 0 mm 0 W/m2
03:29 -7.7 °C -14.1 °C 1018.2 hPa NW 10.9 km/h 24.1 km/h 60% 0 mm 0 W/m2
03:34 -7.7 °C -14.1 °C 1017.8 hPa NW 10.8 km/h 24.1 km/h 60% 0 mm 0 W/m2
03:39 -7.7 °C -14.1 °C 1017.8 hPa WNW 9.2 km/h 24.1 km/h 60% 0 mm 0 W/m2
03:44 -7.7 °C -14.1 °C 1018.2 hPa WNW 10.8 km/h 27.4 km/h 60% 0 mm 0 W/m2
03:49 -7.7 °C -14.1 °C 1018.2 hPa NW 6.3 km/h 27.4 km/h 60% 0 mm 0 W/m2
03:54 -7.7 °C -14.1 °C 1018.2 hPa NW 6.3 km/h 27.4 km/h 60% 0 mm 0 W/m2
03:59 -7.7 °C -14.1 °C 1018.2 hPa WNW 7.7 km/h 27.4 km/h 60% 0 mm 0 W/m2
04:00 -7.7 °C -14.1 °C 1018.2 hPa WNW 1.6 km/h 27.4 km/h 60% 0 mm 0 W/m2
04:09 -7.8 °C -14.2 °C 1018.2 hPa WNW 5.5 km/h 11.3 km/h 60% 0 mm 0 W/m2
04:14 -7.8 °C -14.2 °C 1018.2 hPa NNW 6.8 km/h 16.1 km/h 60% 0 mm 0 W/m2
04:19 -7.8 °C -14.2 °C 1018.2 hPa NW 9 km/h 20.9 km/h 60% 0 mm 0 W/m2
04:24 -7.8 °C -14.2 °C 1018.2 hPa NW 10.9 km/h 20.9 km/h 60% 0 mm 0 W/m2
04:29 -7.7 °C -14.2 °C 1018.2 hPa NW 7.7 km/h 20.9 km/h 59.8% 0 mm 0 W/m2
04:34 -7.8 °C -14.2 °C 1018.2 hPa NW 5.5 km/h 20.9 km/h 60% 0 mm 0 W/m2
04:39 -7.8 °C -14.3 °C 1018.5 hPa WNW 6.6 km/h 11.3 km/h 59.5% 0 mm 0 W/m2
04:44 -7.8 °C -14.2 °C 1018.5 hPa WNW 6.8 km/h 20.9 km/h 59.8% 0 mm 0 W/m2
04:49 -7.8 °C -14.2 °C 1018.5 hPa WNW 5.6 km/h 20.9 km/h 59.7% 0 mm 0 W/m2
04:54 -7.8 °C -14.3 °C 1018.5 hPa WNW 5 km/h 20.9 km/h 59.7% 0 mm 0 W/m2
04:59 -7.8 °C -14.3 °C 1018.8 hPa NW 8 km/h 20.9 km/h 59.2% 0 mm 0 W/m2
05:04 -7.8 °C -14.4 °C 1018.8 hPa NW 5.1 km/h 20.9 km/h 59% 0 mm 0 W/m2
05:09 -7.8 °C -14.6 °C 1018.8 hPa NW 7.7 km/h 24.1 km/h 58.1% 0 mm 0 W/m2
05:14 -7.8 °C -14.6 °C 1018.8 hPa NW 9 km/h 24.1 km/h 58% 0 mm 0 W/m2
05:19 -7.7 °C -14.7 °C 1018.8 hPa NW 7.4 km/h 24.1 km/h 57.3% 0 mm 0 W/m2
05:24 -7.7 °C -14.8 °C 1018.8 hPa WNW 6.1 km/h 24.1 km/h 57% 0 mm 0 W/m2
05:29 -7.7 °C -14.8 °C 1018.8 hPa WNW 4.5 km/h 24.1 km/h 57% 0 mm 0 W/m2
05:34 -7.7 °C -14.8 °C 1018.8 hPa NW 5.1 km/h 24.1 km/h 57% 0 mm 0 W/m2
05:39 -7.8 °C -14.8 °C 1018.8 hPa NNW 3.9 km/h 12.9 km/h 57% 0 mm 0 W/m2
05:44 -7.8 °C -14.8 °C 1019.2 hPa NW 5 km/h 12.9 km/h 57% 0 mm 0 W/m2
05:49 -7.8 °C -14.8 °C 1019.2 hPa NW 6.4 km/h 17.7 km/h 57% 0 mm 0 W/m2
05:54 -7.8 °C -14.8 °C 1018.8 hPa NW 4.3 km/h 17.7 km/h 57% 0 mm 0 W/m2
05:59 -7.8 °C -14.8 °C 1018.8 hPa NW 2.9 km/h 17.7 km/h 57% 0 mm 0 W/m2
06:04 -7.8 °C -14.8 °C 1018.8 hPa NW 3.1 km/h 17.7 km/h 57% 0 mm 0 W/m2
06:09 -7.9 °C -14.9 °C 1018.8 hPa WNW 2.6 km/h 9.7 km/h 57% 0 mm 0 W/m2
06:14 -7.9 °C -14.9 °C 1018.8 hPa NW 5.3 km/h 11.3 km/h 56.9% 0 mm 0 W/m2
06:19 -7.9 °C -15.2 °C 1018.8 hPa NW 3.7 km/h 14.5 km/h 56% 0 mm 0 W/m2
06:24 -7.9 °C -15.1 °C 1018.5 hPa NNW 5 km/h 14.5 km/h 56.4% 0 mm 0 W/m2
06:29 -7.9 °C -15.2 °C 1018.8 hPa NNW 3.5 km/h 14.5 km/h 56% 0 mm 0 W/m2
06:34 -7.9 °C -15.2 °C 1018.8 hPa NW 8.4 km/h 20.9 km/h 56% 0 mm 0 W/m2
06:39 -7.9 °C -15.3 °C 1018.8 hPa NW 6 km/h 20.9 km/h 55.2% 0 mm 0 W/m2
06:44 -7.8 °C -15.3 °C 1018.8 hPa NW 2.1 km/h 20.9 km/h 55% 0 mm 0 W/m2
06:49 -7.8 °C -15.3 °C 1018.8 hPa NW 4.3 km/h 20.9 km/h 55% 0 mm 0 W/m2
06:54 -7.8 °C -15.2 °C 1019.2 hPa NW 5.1 km/h 20.9 km/h 55.2% 0 mm 0 W/m2
06:59 -7.8 °C -15.3 °C 1019.2 hPa NW 6.4 km/h 20.9 km/h 55.1% 0 mm 0 W/m2
07:04 -7.8 °C -15.3 °C 1019.2 hPa NW 5.8 km/h 20.9 km/h 55% 0 mm 0 W/m2
07:09 -7.8 °C -15.3 °C 1019.2 hPa WNW 4.8 km/h 11.3 km/h 54.9% 0 mm 0 W/m2
07:14 -7.8 °C -15.5 °C 1019.2 hPa WNW 3.2 km/h 11.3 km/h 54.1% 0 mm 5 W/m2
07:19 -7.8 °C -15.3 °C 1019.2 hPa WNW 5.6 km/h 11.3 km/h 54.9% 0 mm 9 W/m2
07:24 -7.8 °C -15.4 °C 1019.2 hPa NW 6.6 km/h 11.3 km/h 54.6% 0 mm 12 W/m2
07:29 -7.8 °C -15.3 °C 1019.2 hPa NW 4.5 km/h 11.3 km/h 54.7% 0 mm 16 W/m2
07:34 -7.7 °C -15.3 °C 1019.2 hPa WNW 6.4 km/h 16.1 km/h 54.6% 0 mm 21 W/m2
07:39 -7.7 °C -15.4 °C 1019.2 hPa WNW 9.5 km/h 17.7 km/h 53.8% 0 mm 30 W/m2
07:44 -7.5 °C -15.4 °C 1018.8 hPa WNW 9 km/h 22.5 km/h 53% 0 mm 28 W/m2
07:49 -7.4 °C -15.6 °C 1019.2 hPa WNW 13 km/h 33.8 km/h 52.2% 0 mm 42 W/m2
07:54 -7.3 °C -15.7 °C 1019.2 hPa WNW 5.5 km/h 33.8 km/h 51.2% 0 mm 39 W/m2
07:59 -7.2 °C -15.3 °C 1019.2 hPa NW 4.7 km/h 33.8 km/h 52% 0 mm 46 W/m2
08:00 -7.1 °C -15.2 °C 1019.2 hPa WNW 12.9 km/h 33.8 km/h 52% 0 mm 63 W/m2
08:09 -6.9 °C -15.6 °C 1019.2 hPa WNW 9.8 km/h 19.3 km/h 50% 0 mm 54 W/m2
08:14 -6.9 °C -15.7 °C 1019.2 hPa WNW 13.4 km/h 25.7 km/h 49.3% 0 mm 79 W/m2
08:19 -6.9 °C -15.8 °C 1019.2 hPa WNW 14.3 km/h 33.8 km/h 48.8% 0 mm 49 W/m2
08:24 -6.9 °C -15.8 °C 1019.2 hPa WNW 14.3 km/h 33.8 km/h 48.9% 0 mm 113 W/m2
08:29 -6.8 °C -16 °C 1019.2 hPa WNW 10 km/h 33.8 km/h 48% 0 mm 137 W/m2
08:34 -6.7 °C -15.8 °C 1019.2 hPa NW 11.6 km/h 33.8 km/h 48.3% 0 mm 128 W/m2
08:39 -6.5 °C -15.7 °C 1019.2 hPa NW 11.3 km/h 22.5 km/h 48% 0 mm 128 W/m2
08:44 -6.4 °C -15.8 °C 1019.2 hPa WNW 12.9 km/h 22.5 km/h 47% 0 mm 127 W/m2
08:49 -6.3 °C -15.8 °C 1019.2 hPa WNW 10 km/h 22.5 km/h 47% 0 mm 176 W/m2
08:54 -6.3 °C -15.9 °C 1019.2 hPa WNW 6.3 km/h 22.5 km/h 46.5% 0 mm 195 W/m2
08:59 -6.1 °C -15.6 °C 1019.2 hPa WNW 8 km/h 24.1 km/h 47% 0 mm 179 W/m2
09:04 -5.9 °C -15.7 °C 1019.2 hPa NW 9.8 km/h 24.1 km/h 45.9% 0 mm 160 W/m2
09:09 -5.7 °C -15.8 °C 1019.2 hPa NW 14 km/h 30.6 km/h 44.7% 0 mm 227 W/m2
09:14 -5.7 °C -16.1 °C 1019.2 hPa WNW 13.4 km/h 30.6 km/h 44% 0 mm 227 W/m2
09:19 -5.7 °C -16 °C 1019.2 hPa WNW 11.4 km/h 30.6 km/h 44% 0 mm 279 W/m2
09:24 -5.7 °C -15.9 °C 1019.2 hPa WNW 9.5 km/h 30.6 km/h 44% 0 mm 209 W/m2
09:29 -5.5 °C -15.8 °C 1019.2 hPa WNW 9.8 km/h 30.6 km/h 44% 0 mm 297 W/m2
09:34 -5.3 °C -16 °C 1018.8 hPa WNW 13.8 km/h 30.6 km/h 42.8% 0 mm 288 W/m2
09:39 -5.2 °C -15.9 °C 1019.2 hPa NW 8.7 km/h 29 km/h 42.8% 0 mm 162 W/m2
09:44 -5.1 °C -15.9 °C 1018.8 hPa WNW 13.4 km/h 29 km/h 42.3% 0 mm 151 W/m2
09:49 -5.1 °C -16.2 °C 1018.8 hPa WNW 16.1 km/h 32.2 km/h 41.5% 0 mm 244 W/m2
09:54 -5.2 °C -16.3 °C 1018.8 hPa WNW 13.4 km/h 32.2 km/h 41.2% 0 mm 204 W/m2
09:59 -5.2 °C -16.2 °C 1018.8 hPa WNW 14.2 km/h 41.8 km/h 41.4% 0 mm 149 W/m2
10:04 -5.2 °C -16.1 °C 1018.8 hPa WNW 13.7 km/h 41.8 km/h 41.9% 0 mm 144 W/m2
10:09 -5.2 °C -16.4 °C 1018.8 hPa WNW 13.8 km/h 29 km/h 41.1% 0 mm 135 W/m2
10:14 -5.2 °C -16.2 °C 1018.8 hPa WNW 18.2 km/h 37 km/h 41.6% 0 mm 237 W/m2
10:19 -5.1 °C -16.3 °C 1018.8 hPa WNW 15.1 km/h 37 km/h 41% 0 mm 264 W/m2
10:24 -4.9 °C -16.1 °C 1018.8 hPa NW 12.1 km/h 37 km/h 41.2% 0 mm 253 W/m2
10:29 -4.7 °C -15.8 °C 1018.8 hPa WNW 11.3 km/h 37 km/h 41.2% 0 mm 357 W/m2
10:34 -4.4 °C -15.5 °C 1018.8 hPa West 7.9 km/h 37 km/h 41.5% 0 mm 357 W/m2
10:39 -3.9 °C -15.3 °C 1018.8 hPa WNW 13 km/h 30.6 km/h 40.8% 0 mm 311 W/m2
10:44 -3.7 °C -15.4 °C 1018.8 hPa NW 8.2 km/h 30.6 km/h 39.7% 0 mm 468 W/m2
10:49 -3.4 °C -15.3 °C 1018.5 hPa NW 11.4 km/h 30.6 km/h 39.2% 0 mm 494 W/m2
10:54 -3.1 °C -15.4 °C 1018.5 hPa WNW 11.1 km/h 30.6 km/h 38% 0 mm 522 W/m2
10:59 -2.8 °C -15.6 °C 1018.5 hPa WNW 16.7 km/h 32.2 km/h 36.8% 0 mm 527 W/m2
11:04 -2.8 °C -15.8 °C 1018.5 hPa WNW 13 km/h 32.2 km/h 36.2% 0 mm 529 W/m2
11:09 -2.8 °C -15.4 °C 1018.5 hPa NW 12.1 km/h 32.2 km/h 37% 0 mm 292 W/m2
11:14 -2.7 °C -15.8 °C 1018.2 hPa WNW 15.1 km/h 32.2 km/h 35.7% 0 mm 165 W/m2
11:19 -2.7 °C -15.7 °C 1018.2 hPa WNW 11.7 km/h 32.2 km/h 35.9% 0 mm 128 W/m2
11:24 -2.7 °C -15.8 °C 1018.2 hPa WNW 17.7 km/h 35.4 km/h 35.7% 0 mm 371 W/m2
11:29 -2.8 °C -16 °C 1018.2 hPa WNW 15.9 km/h 35.4 km/h 35.3% 0 mm 202 W/m2
11:34 -2.9 °C -16.1 °C 1018.2 hPa NW 16.7 km/h 35.4 km/h 35.1% 0 mm 373 W/m2
11:39 -2.8 °C -15.9 °C 1017.8 hPa WNW 11.4 km/h 33.8 km/h 35.7% 0 mm 373 W/m2
11:44 -2.7 °C -15.6 °C 1017.8 hPa WNW 11.3 km/h 33.8 km/h 36.3% 0 mm 162 W/m2
11:49 -2.4 °C -15.4 °C 1017.8 hPa WNW 10.9 km/h 33.8 km/h 36.2% 0 mm 156 W/m2
11:54 -2.2 °C -15.4 °C 1017.5 hPa WNW 10.9 km/h 33.8 km/h 35.6% 0 mm 142 W/m2
11:59 -2.1 °C -15.4 °C 1017.5 hPa NW 10.5 km/h 33.8 km/h 35% 0 mm 169 W/m2
12:00 -2 °C -15.4 °C 1017.5 hPa West 7.2 km/h 33.8 km/h 35% 0 mm 218 W/m2
12:09 -1.8 °C -15.4 °C 1017.5 hPa WNW 16.9 km/h 33.8 km/h 34.6% 0 mm 554 W/m2
12:14 -1.9 °C -15.3 °C 1017.5 hPa WNW 14.6 km/h 33.8 km/h 35% 0 mm 468 W/m2
12:19 -1.9 °C -15.3 °C 1017.5 hPa WNW 13 km/h 33.8 km/h 35% 0 mm 468 W/m2
12:24 -1.8 °C -15.2 °C 1017.2 hPa WNW 16.4 km/h 33.8 km/h 35.1% 0 mm 276 W/m2
12:29 -1.8 °C -15.2 °C 1017.2 hPa WNW 14 km/h 33.8 km/h 35% 0 mm 151 W/m2
12:34 -1.7 °C -15.2 °C 1017.2 hPa WNW 19 km/h 37 km/h 35% 0 mm 153 W/m2
12:39 -1.7 °C -15.5 °C 1017.2 hPa WNW 13.8 km/h 37 km/h 34.2% 0 mm 83 W/m2
12:44 -1.7 °C -15.2 °C 1016.8 hPa WNW 15 km/h 37 km/h 34.8% 0 mm 171 W/m2
12:49 -1.5 °C -15.3 °C 1016.8 hPa WNW 16.4 km/h 37 km/h 34.1% 0 mm 155 W/m2
12:54 -1.4 °C -15.3 °C 1016.8 hPa WNW 13.7 km/h 37 km/h 34% 0 mm 153 W/m2
12:59 -1.3 °C -15.1 °C 1016.8 hPa WNW 11.1 km/h 37 km/h 34.3% 0 mm 283 W/m2
13:04 -1.2 °C -15.1 °C 1016.8 hPa NW 12.6 km/h 37 km/h 33.8% 0 mm 283 W/m2
13:09 -1.2 °C -15.6 °C 1016.8 hPa WNW 20.9 km/h 37 km/h 32.4% 0 mm 262 W/m2
13:14 -1.3 °C -15.9 °C 1016.5 hPa NW 20.4 km/h 43.5 km/h 32% 0 mm 207 W/m2
13:19 -1.4 °C -15.7 °C 1016.5 hPa NW 14.8 km/h 43.5 km/h 32.8% 0 mm 309 W/m2
13:24 -1.4 °C -15.6 °C 1016.8 hPa NW 16.3 km/h 43.5 km/h 33% 0 mm 309 W/m2
13:29 -1.3 °C -15.6 °C 1016.8 hPa NW 17.2 km/h 43.5 km/h 33% 0 mm 229 W/m2
13:34 -1.2 °C -15.2 °C 1016.8 hPa NW 16.6 km/h 43.5 km/h 33.7% 0 mm 271 W/m2
13:39 -1.2 °C -15.3 °C 1016.8 hPa NW 15 km/h 32.2 km/h 33.4% 0 mm 109 W/m2
13:44 -1.1 °C -15.2 °C 1016.5 hPa NW 11.9 km/h 32.2 km/h 33.5% 0 mm 160 W/m2
13:49 -1.1 °C -15 °C 1016.5 hPa WNW 16.9 km/h 37 km/h 33.8% 0 mm 334 W/m2
13:54 -1.1 °C -15.3 °C 1016.8 hPa WNW 20.1 km/h 40.2 km/h 33% 0 mm 181 W/m2
13:59 -1.3 °C -15.2 °C 1016.8 hPa NW 18.5 km/h 40.2 km/h 33.7% 0 mm 192 W/m2
14:04 -1.3 °C -15.3 °C 1016.8 hPa WNW 13.5 km/h 40.2 km/h 33.6% 0 mm 156 W/m2
14:09 -1.3 °C -15.2 °C 1016.8 hPa NW 15.1 km/h 32.2 km/h 34% 0 mm 183 W/m2
14:14 -1.2 °C -15.1 °C 1016.8 hPa NW 17.1 km/h 32.2 km/h 34% 0 mm 229 W/m2
14:19 -1.2 °C -15 °C 1016.8 hPa NW 10.8 km/h 32.2 km/h 34% 0 mm 329 W/m2
14:24 -1.1 °C -14.9 °C 1016.8 hPa NNW 7.7 km/h 32.2 km/h 34% 0 mm 204 W/m2
14:29 -0.9 °C -14.8 °C 1016.8 hPa WNW 9.7 km/h 32.2 km/h 34% 0 mm 265 W/m2
14:34 -1 °C -14.9 °C 1017.2 hPa WNW 11.9 km/h 32.2 km/h 34% 0 mm 257 W/m2
14:39 -1.1 °C -14.9 °C 1016.8 hPa NW 8 km/h 25.7 km/h 34% 0 mm 54 W/m2
14:44 -1.1 °C -14.9 °C 1017.2 hPa WNW 10.1 km/h 27.4 km/h 34% 0 mm 77 W/m2
14:49 -1.1 °C -14.9 °C 1017.2 hPa WNW 17.7 km/h 30.6 km/h 34.2% 0 mm 227 W/m2
14:54 -1.2 °C -15 °C 1017.2 hPa WNW 17.2 km/h 30.6 km/h 34.2% 0 mm 160 W/m2
14:59 -1.4 °C -14.9 °C 1017.2 hPa NW 15.4 km/h 30.6 km/h 35% 0 mm 60 W/m2
15:04 -1.4 °C -14.9 °C 1017.2 hPa WNW 14.8 km/h 30.6 km/h 35% 0 mm 30 W/m2
15:09 -1.4 °C -14.9 °C 1017.2 hPa WNW 15.8 km/h 32.2 km/h 35% 0 mm 28 W/m2
15:14 -1.5 °C -14.9 °C 1017.5 hPa WNW 16.4 km/h 32.2 km/h 35% 0 mm 28 W/m2
15:19 -1.6 °C -14.8 °C 1017.5 hPa NW 12.1 km/h 32.2 km/h 35.5% 0 mm 28 W/m2
15:24 -1.6 °C -14.8 °C 1017.5 hPa WNW 11.9 km/h 32.2 km/h 35.8% 0 mm 28 W/m2
15:29 -1.6 °C -14.7 °C 1017.5 hPa WNW 11.3 km/h 32.2 km/h 36% 0 mm 26 W/m2
15:34 -1.5 °C -14.6 °C 1017.5 hPa WNW 13.8 km/h 32.2 km/h 36% 0 mm 26 W/m2
15:39 -1.6 °C -14.7 °C 1017.5 hPa WNW 15.9 km/h 29 km/h 36% 0 mm 26 W/m2
15:44 -1.7 °C -14.8 °C 1017.5 hPa NW 12.9 km/h 29 km/h 36% 0 mm 25 W/m2
15:49 -1.7 °C -14.6 °C 1017.2 hPa NW 8.7 km/h 29 km/h 36.6% 0 mm 23 W/m2
15:54 -1.8 °C -14.6 °C 1017.2 hPa NW 5.8 km/h 29 km/h 37% 0 mm 21 W/m2
15:59 -1.7 °C -14.4 °C 1017.5 hPa WNW 6 km/h 29 km/h 37.4% 0 mm 19 W/m2
16:04 -1.8 °C -14.2 °C 1017.5 hPa WNW 8 km/h 8 km/h 38% 0 mm 18 W/m2
16:09 -1.8 °C -14.3 °C 1017.5 hPa WNW 8.9 km/h 22.5 km/h 37.8% 0 mm 18 W/m2
16:14 -1.9 °C -14.4 °C 1017.5 hPa WNW 13.5 km/h 27.4 km/h 37.8% 0 mm 16 W/m2
16:19 -2 °C -14.4 °C 1017.5 hPa NW 10 km/h 27.4 km/h 38% 0 mm 16 W/m2
16:24 -2.1 °C -14.5 °C 1017.5 hPa NW 6 km/h 27.4 km/h 38% 0 mm 14 W/m2
16:29 -2.2 °C -14.3 °C 1017.8 hPa WNW 7.4 km/h 27.4 km/h 38.6% 0 mm 14 W/m2
16:34 -2.2 °C -14.3 °C 1017.8 hPa NW 6.6 km/h 27.4 km/h 39% 0 mm 9 W/m2
16:39 -2.3 °C -14.3 °C 1017.8 hPa WNW 9 km/h 22.5 km/h 39.4% 0 mm 7 W/m2
16:44 -2.5 °C -14.2 °C 1017.8 hPa WNW 9.5 km/h 22.5 km/h 40% 0 mm 5 W/m2
16:49 -2.6 °C -14.3 °C 1017.8 hPa WNW 14.2 km/h 25.7 km/h 40% 0 mm 5 W/m2
16:54 -2.8 °C -14.3 °C 1017.8 hPa WNW 13.4 km/h 25.7 km/h 40.8% 0 mm 0 W/m2
16:59 -2.9 °C -14.3 °C 1017.8 hPa WNW 11.7 km/h 25.7 km/h 41% 0 mm 0 W/m2
17:04 -3.1 °C -14.4 °C 1017.8 hPa WNW 12.6 km/h 29 km/h 41.1% 0 mm 0 W/m2
17:09 -3.2 °C -14.2 °C 1017.8 hPa WNW 10 km/h 29 km/h 42% 0 mm 0 W/m2
17:14 -3.3 °C -14.3 °C 1017.8 hPa WNW 12.1 km/h 29 km/h 42.2% 0 mm 0 W/m2
17:19 -3.4 °C -14.2 °C 1017.8 hPa WNW 15.3 km/h 29 km/h 42.8% 0 mm 0 W/m2
17:24 -3.5 °C -14.3 °C 1017.8 hPa WNW 13.2 km/h 29 km/h 43% 0 mm 0 W/m2
17:29 -3.6 °C -14.3 °C 1017.8 hPa WNW 6.1 km/h 29 km/h 43% 0 mm 0 W/m2
17:34 -3.6 °C -14.1 °C 1018.2 hPa WNW 6.9 km/h 29 km/h 43.9% 0 mm 0 W/m2
17:39 -3.7 °C -14.2 °C 1017.8 hPa WNW 8.9 km/h 24.1 km/h 44% 0 mm 0 W/m2
17:44 -3.8 °C -14.2 °C 1018.2 hPa NW 9.8 km/h 25.7 km/h 44% 0 mm 0 W/m2
17:49 -3.8 °C -14.3 °C 1018.2 hPa NW 11.1 km/h 25.7 km/h 44% 0 mm 0 W/m2
17:54 -3.9 °C -14.3 °C 1018.5 hPa WNW 9.2 km/h 25.7 km/h 44% 0 mm 0 W/m2
17:59 -3.9 °C -14.4 °C 1018.5 hPa WNW 6.9 km/h 25.7 km/h 44% 0 mm 0 W/m2
18:04 -3.9 °C -14.2 °C 1018.5 hPa WNW 7.6 km/h 25.7 km/h 44.6% 0 mm 0 W/m2
18:09 -4 °C -14.2 °C 1018.5 hPa WNW 11.3 km/h 27.4 km/h 45% 0 mm 0 W/m2
18:14 -4.1 °C -14.2 °C 1018.2 hPa WNW 10.3 km/h 27.4 km/h 45% 0 mm 0 W/m2
18:19 -4.1 °C -14.2 °C 1018.2 hPa WNW 10.8 km/h 27.4 km/h 45.2% 0 mm 0 W/m2
18:24 -4.2 °C -14.2 °C 1018.2 hPa WNW 10.8 km/h 27.4 km/h 45.5% 0 mm 0 W/m2
18:29 -4.2 °C -14.2 °C 1018.5 hPa WNW 10.9 km/h 27.4 km/h 45.3% 0 mm 0 W/m2
18:34 -4.2 °C -14.1 °C 1018.5 hPa NW 9 km/h 27.4 km/h 46% 0 mm 0 W/m2
18:39 -4.2 °C -14.1 °C 1018.5 hPa NW 6 km/h 20.9 km/h 46% 0 mm 0 W/m2
18:44 -4.2 °C -14.1 °C 1018.5 hPa NW 3.9 km/h 20.9 km/h 46% 0 mm 0 W/m2
18:49 -4.2 °C -14.1 °C 1018.5 hPa NW 6.9 km/h 20.9 km/h 46% 0 mm 0 W/m2
18:54 -4.2 °C -14.1 °C 1018.5 hPa WNW 2.7 km/h 20.9 km/h 46% 0 mm 0 W/m2
18:59 -4.2 °C -14 °C 1018.2 hPa NNW 2.1 km/h 20.9 km/h 46.5% 0 mm 0 W/m2
19:04 -4.3 °C -14.1 °C 1018.5 hPa NNW 3.2 km/h 20.9 km/h 46.3% 0 mm 0 W/m2
19:09 -4.3 °C -13.9 °C 1018.2 hPa NW 6 km/h 14.5 km/h 47% 0 mm 0 W/m2
19:14 -4.3 °C -13.9 °C 1018.2 hPa NW 5.5 km/h 14.5 km/h 47% 0 mm 0 W/m2
19:19 -4.3 °C -13.9 °C 1018.2 hPa WNW 8.9 km/h 20.9 km/h 47% 0 mm 0 W/m2
19:24 -4.3 °C -13.9 °C 1018.2 hPa West 6.3 km/h 20.9 km/h 47% 0 mm 0 W/m2
19:29 -4.3 °C -13.9 °C 1018.2 hPa WNW 3.5 km/h 20.9 km/h 47% 0 mm 0 W/m2
19:34 -4.4 °C -14 °C 1018.5 hPa NW 0.6 km/h 20.9 km/h 47% 0 mm 0 W/m2
19:39 -4.4 °C -14 °C 1018.5 hPa NNW 4.5 km/h 17.7 km/h 47.1% 0 mm 0 W/m2
19:44 -4.4 °C -13.9 °C 1018.2 hPa NW 1.8 km/h 17.7 km/h 47.5% 0 mm 0 W/m2
19:49 -4.4 °C -13.8 °C 1018.2 hPa NNW 3.7 km/h 17.7 km/h 47.8% 0 mm 0 W/m2
19:54 -4.5 °C -13.8 °C 1018.2 hPa NW 4.2 km/h 17.7 km/h 48% 0 mm 0 W/m2
19:59 -4.5 °C -13.8 °C 1018.2 hPa WNW 5.8 km/h 17.7 km/h 48% 0 mm 0 W/m2
20:09 -4.6 °C -13.9 °C 1018.2 hPa WNW 3.4 km/h 11.3 km/h 48% 0 mm 0 W/m2
20:14 -4.6 °C -13.9 °C 1018.2 hPa WNW 6.6 km/h 17.7 km/h 48% 0 mm 0 W/m2
20:19 -4.6 °C -13.9 °C 1018.2 hPa NW 4.7 km/h 17.7 km/h 48.3% 0 mm 0 W/m2
20:24 -4.7 °C -13.9 °C 1018.2 hPa NW 8.9 km/h 17.7 km/h 48.4% 0 mm 0 W/m2
20:29 -4.7 °C -13.8 °C 1018.2 hPa NW 8.9 km/h 17.7 km/h 48.8% 0 mm 0 W/m2
20:34 -4.7 °C -13.8 °C 1018.2 hPa WNW 11.6 km/h 22.5 km/h 49% 0 mm 0 W/m2
20:39 -4.7 °C -13.8 °C 1018.2 hPa NW 10 km/h 22.5 km/h 49% 0 mm 0 W/m2
20:44 -4.7 °C -13.8 °C 1018.2 hPa WNW 8.5 km/h 22.5 km/h 49% 0 mm 0 W/m2
20:49 -4.8 °C -13.7 °C 1018.2 hPa NW 8.7 km/h 22.5 km/h 49.6% 0 mm 0 W/m2
20:54 -4.8 °C -13.6 °C 1018.5 hPa NW 9.5 km/h 22.5 km/h 50% 0 mm 0 W/m2
20:59 -4.8 °C -13.6 °C 1018.2 hPa WNW 9.8 km/h 22.5 km/h 50% 0 mm 0 W/m2
21:04 -4.8 °C -13.6 °C 1018.2 hPa WNW 5.6 km/h 22.5 km/h 50% 0 mm 0 W/m2
21:09 -4.8 °C -13.6 °C 1018.2 hPa WNW 11.7 km/h 20.9 km/h 50% 0 mm 0 W/m2
21:14 -4.8 °C -13.7 °C 1018.2 hPa WNW 8 km/h 20.9 km/h 50% 0 mm 0 W/m2
21:19 -4.8 °C -13.6 °C 1018.2 hPa NW 10 km/h 20.9 km/h 50.5% 0 mm 0 W/m2
21:24 -4.8 °C -13.7 °C 1018.2 hPa WNW 9.7 km/h 20.9 km/h 50% 0 mm 0 W/m2
21:29 -4.8 °C -13.6 °C 1018.2 hPa WNW 8.2 km/h 20.9 km/h 50.2% 0 mm 0 W/m2
21:34 -4.8 °C -13.6 °C 1017.8 hPa WNW 9.7 km/h 20.9 km/h 50.4% 0 mm 0 W/m2
21:39 -4.8 °C -13.6 °C 1017.8 hPa WNW 11.4 km/h 20.9 km/h 50.5% 0 mm 0 W/m2
21:44 -4.9 °C -13.6 °C 1017.8 hPa WNW 6.3 km/h 20.9 km/h 50.7% 0 mm 0 W/m2
21:49 -4.9 °C -13.5 °C 1018.2 hPa WNW 7.6 km/h 20.9 km/h 51% 0 mm 0 W/m2
21:54 -4.9 °C -13.5 °C 1018.2 hPa WNW 7.7 km/h 20.9 km/h 51% 0 mm 0 W/m2
21:59 -4.9 °C -13.6 °C 1018.2 hPa WNW 3.5 km/h 20.9 km/h 51% 0 mm 0 W/m2
22:04 -5 °C -13.5 °C 1018.2 hPa WNW 6.1 km/h 20.9 km/h 51.3% 0 mm 0 W/m2
22:09 -5.1 °C -13.4 °C 1018.2 hPa WNW 6.1 km/h 14.5 km/h 51.8% 0 mm 0 W/m2
22:14 -5.1 °C -13.4 °C 1018.2 hPa WNW 7.7 km/h 19.3 km/h 52% 0 mm 0 W/m2
22:19 -5.2 °C -13.5 °C 1018.2 hPa WNW 7.4 km/h 25.7 km/h 52% 0 mm 0 W/m2
22:24 -5.2 °C -13.6 °C 1018.2 hPa WNW 9.5 km/h 25.7 km/h 52% 0 mm 0 W/m2
22:29 -5.3 °C -13.6 °C 1018.2 hPa NW 7.2 km/h 25.7 km/h 52% 0 mm 0 W/m2
22:34 -5.3 °C -13.6 °C 1018.2 hPa WNW 9.3 km/h 25.7 km/h 52% 0 mm 0 W/m2
22:39 -5.3 °C -13.6 °C 1018.2 hPa WNW 5 km/h 19.3 km/h 52.1% 0 mm 0 W/m2
22:44 -5.3 °C -13.4 °C 1018.2 hPa WNW 7.9 km/h 19.3 km/h 52.9% 0 mm 0 W/m2
22:49 -5.3 °C -13.6 °C 1018.2 hPa NW 7.1 km/h 19.3 km/h 52.3% 0 mm 0 W/m2
22:54 -5.4 °C -13.4 °C 1018.2 hPa NW 5.8 km/h 19.3 km/h 53% 0 mm 0 W/m2
22:58 -5.4 °C -13.4 °C 1018.2 hPa WNW 5.1 km/h 19.3 km/h 53% 0 mm 0 W/m2
23:04 -5.4 °C -13.5 °C 1018.2 hPa WNW 2.6 km/h 6.4 km/h 53% 0 mm 0 W/m2
23:09 -5.4 °C -13.5 °C 1018.2 hPa WNW 5.6 km/h 16.1 km/h 53% 0 mm 0 W/m2
23:14 -5.4 °C -13.5 °C 1018.2 hPa WNW 5.6 km/h 16.1 km/h 53% 0 mm 0 W/m2
23:19 -5.5 °C -13.6 °C 1018.2 hPa NW 9 km/h 25.7 km/h 53% 0 mm 0 W/m2
23:24 -5.5 °C -13.6 °C 1018.2 hPa NW 7.7 km/h 25.7 km/h 53% 0 mm 0 W/m2
23:29 -5.6 °C -13.6 °C 1018.2 hPa NW 5.6 km/h 25.7 km/h 53% 0 mm 0 W/m2
23:34 -5.6 °C -13.6 °C 1018.2 hPa WNW 5 km/h 25.7 km/h 53% 0 mm 0 W/m2
23:39 -5.6 °C -13.6 °C 1018.2 hPa WNW 4.2 km/h 9.7 km/h 53% 0 mm 0 W/m2
23:44 -5.6 °C -13.6 °C 1017.8 hPa NW 3.4 km/h 11.3 km/h 53% 0 mm 0 W/m2
23:49 -5.6 °C -13.7 °C 1017.8 hPa NW 3.7 km/h 11.3 km/h 53% 0 mm 0 W/m2
23:54 -5.7 °C -13.7 °C 1017.8 hPa NNW 4.5 km/h 12.9 km/h 53% 0 mm 0 W/m2
23:59 -5.7 °C -13.7 °C 1018.2 hPa NNW 4.3 km/h 12.9 km/h 53% 0 mm 0 W/m2
Hartford County Weather
Compliments of Weather Underground - 2 mb